Time;durP1;ratioP1;P1;durP2;ratioP2;P2;SDS_P1;SDS_P2;PMS_P1;PMS_P2;Temp;Humidity;BMP_temperature;BMP_pressure;BME280_temperature;BME280_humidity;BME280_pressure;Samples;Min_cycle;Max_cycle;Signal;HPM_P1;HPM_P2
2022/08/20 00:01:03;;;;;;;;;21.75;19.50;;;;;20.74;77.75;99396.59;5074116;28;46290;-65
2022/08/20 00:03:32;;;;;;;;;19.00;18.40;;;;;20.76;77.07;99396.47;5040095;28;45410;-64
2022/08/20 00:06:08;;;;;;;;;14.25;14.25;;;;;20.76;77.20;99397.34;5074419;28;45362;-67
2022/08/20 00:08:35;;;;;;;;;16.50;16.50;;;;;20.79;76.90;99398.91;5075048;28;45532;-66
2022/08/20 00:11:01;;;;;;;;;22.00;20.50;;;;;20.79;76.95;99397.06;5074424;28;47148;-66
2022/08/20 00:13:34;;;;;;;;;19.25;18.25;;;;;20.79;77.74;99397.06;5074407;28;45382;-66
2022/08/20 00:16:00;;;;;;;;;15.00;15.00;;;;;20.81;77.39;99402.31;5074800;28;45440;-67
2022/08/20 00:18:26;;;;;;;;;18.50;17.75;;;;;20.81;77.39;99391.59;5075015;28;45525;-66
2022/08/20 00:20:54;;;;;;;;;15.75;15.75;;;;;20.81;77.05;99396.94;5074763;28;45442;-66
2022/08/20 00:23:20;;;;;;;;;20.60;19.20;;;;;20.81;76.98;99394.28;5075052;28;45422;-66
2022/08/20 00:25:47;;;;;;;;;17.25;17.00;;;;;20.82;76.93;99394.16;5074780;28;45578;-66
2022/08/20 00:28:13;;;;;;;;;16.75;16.25;;;;;20.80;77.33;99396.09;5074319;28;45325;-65
2022/08/20 00:30:41;;;;;;;;;20.75;20.00;;;;;20.78;77.36;99397.22;5073421;28;46937;-66
2022/08/20 00:33:16;;;;;;;;;18.75;18.25;;;;;20.77;77.33;99393.69;5074544;28;45427;-65
2022/08/20 00:35:46;;;;;;;;;16.50;15.00;;;;;20.77;76.72;99398.19;5074408;28;45571;-66
2022/08/20 00:38:12;;;;;;;;;19.25;16.75;;;;;20.74;76.80;99395.75;5074305;28;45596;-66
2022/08/20 00:40:58;;;;;;;;;19.00;18.00;;;;;20.71;76.84;99393.28;5072667;28;46145;-66
2022/08/20 00:43:30;;;;;;;;;17.40;17.00;;;;;20.70;77.39;99397.78;5071102;28;45446;-66
2022/08/20 00:45:56;;;;;;;;;19.00;17.75;;;;;20.69;77.46;99392.56;5073880;28;45415;-66
2022/08/20 00:48:26;;;;;;;;;26.50;21.75;;;;;20.69;77.19;99384.50;5074175;28;45203;-66
2022/08/20 00:50:55;;;;;;;;;17.75;15.50;;;;;20.68;77.76;99388.16;5073982;28;46337;-66
2022/08/20 00:53:23;;;;;;;;;16.40;16.40;;;;;20.66;77.15;99379.38;5074566;28;45375;-66
2022/08/20 00:55:49;;;;;;;;;19.75;18.00;;;;;20.67;77.09;99389.13;5073890;28;45370;-65
2022/08/20 00:58:14;;;;;;;;;18.25;13.75;;;;;20.64;77.37;99384.00;5074174;28;45432;-65
2022/08/20 01:00:44;;;;;;;;;15.75;15.75;;;;;20.59;77.53;99379.03;5074039;28;46418;-65
2022/08/20 01:03:13;;;;;;;;;19.00;16.40;;;;;20.53;77.45;99377.66;5076222;28;45680;-65
2022/08/20 01:05:43;;;;;;;;;18.25;17.50;;;;;20.49;78.01;99375.31;5077839;28;45456;-64
2022/08/20 01:08:09;;;;;;;;;19.00;15.75;;;;;20.45;77.92;99377.38;5077861;28;45373;-65
2022/08/20 01:10:39;;;;;;;;;21.00;18.00;;;;;20.43;78.41;99371.31;5077110;28;45735;-64
2022/08/20 01:13:09;;;;;;;;;19.25;17.50;;;;;20.41;78.58;99375.94;5077452;28;45479;-65
2022/08/20 01:15:41;;;;;;;;;18.25;17.50;;;;;20.38;78.46;99370.81;5077206;28;45260;-65
2022/08/20 01:18:12;;;;;;;;;20.75;18.50;;;;;20.35;78.58;99376.34;5071896;28;45362;-67
2022/08/20 01:20:59;;;;;;;;;18.75;15.25;;;;;20.31;78.62;99379.38;5076186;28;46671;-67
2022/08/20 01:23:46;;;;;;;;;20.80;17.40;;;;;20.29;78.88;99378.63;5077259;28;45507;-67
2022/08/20 01:26:17;;;;;;;;;17.75;16.75;;;;;20.26;79.03;99379.75;5076246;28;45500;-67
2022/08/20 01:28:57;;;;;;;;;16.00;16.00;;;;;20.23;79.00;99379.97;5059004;28;45519;-67
2022/08/20 01:31:27;;;;;;;;;18.75;17.00;;;;;20.21;78.84;99380.09;5077262;28;46199;-67
2022/08/20 01:33:54;;;;;;;;;17.40;16.60;;;;;20.18;79.21;99387.50;5077682;28;45323;-67
2022/08/20 01:36:42;;;;;;;;;20.00;18.75;;;;;20.13;79.61;99387.81;5076934;28;45399;-67
2022/08/20 01:39:11;;;;;;;;;18.50;18.50;;;;;20.08;80.19;99381.13;5071936;28;45380;-66
2022/08/20 01:41:54;;;;;;;;;22.75;20.25;;;;;20.04;79.88;99376.97;5071047;28;45418;-66
2022/08/20 01:44:21;;;;;;;;;15.25;13.50;;;;;19.99;80.62;99381.81;5076738;28;45310;-66
2022/08/20 01:46:48;;;;;;;;;22.50;19.50;;;;;19.95;80.30;99388.34;5072610;28;45440;-66
2022/08/20 01:49:25;;;;;;;;;14.25;14.25;;;;;19.91;80.49;99393.09;5077418;28;45556;-66
2022/08/20 01:51:53;;;;;;;;;20.50;17.50;;;;;19.88;80.67;99389.78;5073994;28;45652;-66
2022/08/20 01:54:20;;;;;;;;;19.25;16.75;;;;;19.83;80.05;99382.09;5077224;28;45536;-66
2022/08/20 01:57:03;;;;;;;;;19.75;19.00;;;;;19.80;79.91;99393.88;5067772;28;45405;-68
2022/08/20 01:59:29;;;;;;;;;15.00;14.00;;;;;19.77;79.04;99387.91;5073568;28;45413;-67
2022/08/20 02:01:55;;;;;;;;;14.00;14.00;;;;;19.76;79.02;99384.38;5076539;28;45601;-67
2022/08/20 02:04:21;;;;;;;;;13.20;12.40;;;;;19.75;79.14;99385.34;5070038;28;45531;-66
2022/08/20 02:06:53;;;;;;;;;8.00;7.00;;;;;19.76;79.18;99384.38;5074574;28;45445;-65
2022/08/20 02:09:20;;;;;;;;;20.25;18.25;;;;;19.78;79.49;99386.91;5076530;28;45385;-65
2022/08/20 02:11:46;;;;;;;;;16.25;15.50;;;;;19.79;78.99;99381.44;5056068;28;45915;-65
2022/08/20 02:14:14;;;;;;;;;18.40;17.00;;;;;19.80;79.25;99382.31;5075596;28;45283;-68
2022/08/20 02:16:42;;;;;;;;;14.75;14.75;;;;;19.81;79.59;99382.19;5072828;28;45435;-68
2022/08/20 02:19:13;;;;;;;;;19.75;17.75;;;;;19.84;79.29;99373.09;5077009;28;45521;-68
2022/08/20 02:21:44;;;;;;;;;16.00;14.50;;;;;19.85;79.28;99370.31;5075381;28;45633;-68
2022/08/20 02:24:10;;;;;;;;;16.00;14.80;;;;;19.88;79.88;99374.59;5076599;28;45350;-68
2022/08/20 02:26:37;;;;;;;;;16.50;16.00;;;;;19.90;79.75;99372.66;5075524;28;45423;-68
2022/08/20 02:29:08;;;;;;;;;17.50;16.00;;;;;19.92;80.07;99373.41;5072444;28;45468;-68
2022/08/20 02:31:35;;;;;;;;;16.75;16.00;;;;;19.90;79.84;99367.28;5076298;28;46485;-68
2022/08/20 02:34:03;;;;;;;;;16.60;15.60;;;;;19.89;80.24;99367.41;5076645;28;45490;-67
2022/08/20 02:36:29;;;;;;;;;17.50;17.50;;;;;19.90;80.34;99369.97;5074964;28;45406;-68
2022/08/20 02:38:54;;;;;;;;;19.25;17.50;;;;;19.90;80.17;99371.78;5075692;28;45471;-68
2022/08/20 02:41:22;;;;;;;;;16.50;16.25;;;;;19.89;80.32;99370.94;5075926;28;46328;-68
2022/08/20 02:43:50;;;;;;;;;18.40;17.40;;;;;19.88;80.60;99363.03;5075854;28;45464;-67
2022/08/20 02:46:17;;;;;;;;;20.50;19.50;;;;;19.85;80.35;99359.59;5076219;28;45397;-67
2022/08/20 02:48:42;;;;;;;;;17.25;16.00;;;;;19.82;80.67;99359.81;5076116;28;45349;-67
2022/08/20 02:51:08;;;;;;;;;19.25;18.50;;;;;19.79;80.21;99356.53;5074938;28;45643;-67
2022/08/20 02:53:36;;;;;;;;;16.60;16.60;;;;;19.77;80.76;99353.13;5075464;28;45516;-67
2022/08/20 02:56:05;;;;;;;;;18.75;18.75;;;;;19.75;80.61;99355.91;5073121;28;45485;-67
2022/08/20 02:58:31;;;;;;;;;21.50;20.00;;;;;19.72;80.47;99349.94;5075829;28;45295;-67
2022/08/20 03:00:57;;;;;;;;;15.25;15.25;;;;;19.68;80.51;99345.75;5075858;28;46433;-67
2022/08/20 03:03:23;;;;;;;;;15.25;15.25;;;;;19.67;80.64;99347.59;5076104;28;45429;-66
2022/08/20 03:05:51;;;;;;;;;15.50;14.50;;;;;19.63;80.75;99343.41;5075977;28;45304;-67
2022/08/20 03:08:17;;;;;;;;;16.75;16.75;;;;;19.60;80.99;99346.34;5076115;28;45438;-67
2022/08/20 03:10:45;;;;;;;;;20.50;19.25;;;;;19.58;81.16;99345.59;5075400;28;46357;-67
2022/08/20 03:13:12;;;;;;;;;19.50;18.25;;;;;19.53;80.93;99345.06;5073974;28;45400;-66
2022/08/20 03:15:41;;;;;;;;;18.50;15.50;;;;;19.48;81.30;99348.03;5075255;28;45408;-66
2022/08/20 03:18:07;;;;;;;;;22.25;18.00;;;;;19.46;81.57;99351.78;5075456;28;45516;-66
2022/08/20 03:20:32;;;;;;;;;20.50;18.75;;;;;19.44;81.91;99354.56;5075586;28;46274;-66
2022/08/20 03:22:58;;;;;;;;;17.25;16.75;;;;;19.43;81.65;99354.72;5075646;28;45540;-67
2022/08/20 03:25:24;;;;;;;;;20.00;18.00;;;;;19.43;82.20;99357.38;5074604;28;45485;-67
2022/08/20 03:27:49;;;;;;;;;15.00;14.25;;;;;19.42;82.22;99356.53;5072904;28;45618;-65
2022/08/20 03:30:16;;;;;;;;;20.25;17.50;;;;;19.43;81.95;99358.25;5074895;28;45425;-65
2022/08/20 03:32:42;;;;;;;;;19.60;18.20;;;;;19.41;81.77;99352.16;5075280;28;45391;-68
2022/08/20 03:35:11;;;;;;;;;17.75;17.25;;;;;19.43;82.40;99355.56;5075465;28;45532;-69
2022/08/20 03:37:37;;;;;;;;;20.25;15.75;;;;;19.44;82.19;99356.41;5073911;28;45547;-69
2022/08/20 03:40:06;;;;;;;;;16.50;13.75;;;;;19.44;82.10;99348.38;5075922;28;45440;-68
2022/08/20 03:42:32;;;;;;;;;16.25;16.25;;;;;19.43;82.08;99349.38;5073925;28;45476;-68
2022/08/20 03:44:57;;;;;;;;;16.50;16.50;;;;;19.44;81.92;99356.41;5074710;28;45720;-68
2022/08/20 03:47:22;;;;;;;;;19.50;17.25;;;;;19.45;81.60;99360.78;5073440;28;45396;-69
2022/08/20 03:49:48;;;;;;;;;19.50;18.00;;;;;19.43;81.99;99365.41;5075104;28;45835;-68
2022/08/20 03:52:16;;;;;;;;;16.25;16.00;;;;;19.44;82.34;99362.59;5053188;28;45346;-68
2022/08/20 03:54:44;;;;;;;;;18.00;17.25;;;;;19.44;82.06;99367.94;5054439;28;45271;-69
2022/08/20 03:57:14;;;;;;;;;20.25;17.50;;;;;19.41;81.64;99362.84;5074443;28;45579;-66
2022/08/20 03:59:43;;;;;;;;;19.50;17.25;;;;;19.37;82.51;99363.16;5074166;28;45468;-65
2022/08/20 04:02:10;;;;;;;;;17.20;14.60;;;;;19.33;82.40;99369.69;5073816;28;45420;-65
2022/08/20 04:04:36;;;;;;;;;17.25;16.25;;;;;19.30;82.92;99370.75;5056157;28;45501;-65
2022/08/20 04:07:09;;;;;;;;;20.00;17.50;;;;;19.27;82.84;99370.16;5074604;28;45397;-65
2022/08/20 04:09:35;;;;;;;;;19.75;17.00;;;;;19.26;82.96;99371.97;5074583;28;46056;-64
2022/08/20 04:12:01;;;;;;;;;16.80;16.40;;;;;19.24;82.78;99373.91;5073265;28;45409;-68
2022/08/20 04:14:26;;;;;;;;;17.25;16.25;;;;;19.22;83.19;99367.81;5074426;28;45287;-67
2022/08/20 04:16:52;;;;;;;;;19.50;17.75;;;;;19.22;83.38;99375.81;5074509;28;45386;-67
2022/08/20 04:19:17;;;;;;;;;16.25;15.75;;;;;19.18;83.13;99374.31;5074548;28;45527;-67
2022/08/20 04:21:43;;;;;;;;;21.00;20.00;;;;;19.19;83.07;99376.03;5074814;28;45256;-68
2022/08/20 04:24:08;;;;;;;;;19.00;17.75;;;;;19.18;83.47;99372.50;5074428;28;45396;-68
2022/08/20 04:26:36;;;;;;;;;18.75;17.00;;;;;19.17;83.21;99368.13;5073408;28;45375;-68
2022/08/20 04:29:01;;;;;;;;;15.75;15.50;;;;;19.15;82.76;99369.19;5073768;28;46368;-67
2022/08/20 04:31:32;;;;;;;;;22.50;17.75;;;;;19.14;83.03;99368.34;5074370;28;45397;-67
2022/08/20 04:33:59;;;;;;;;;20.00;17.50;;;;;19.13;83.23;99368.44;5074731;28;45361;-67
2022/08/20 04:36:25;;;;;;;;;18.25;16.25;;;;;19.12;83.26;99377.41;5056340;28;45490;-67
2022/08/20 04:38:50;;;;;;;;;15.50;13.75;;;;;19.12;83.05;99372.94;5077531;28;46328;-67
2022/08/20 04:41:15;;;;;;;;;16.00;15.50;;;;;19.14;82.81;99370.16;5053756;28;45416;-67
2022/08/20 04:43:41;;;;;;;;;16.50;15.50;;;;;19.13;83.17;99371.13;5077703;28;45394;-66
2022/08/20 04:46:10;;;;;;;;;13.50;13.50;;;;;19.12;82.77;99372.06;5076743;28;45470;-67
2022/08/20 04:48:39;;;;;;;;;18.75;17.25;;;;;19.15;82.88;99374.53;5077873;28;46087;-67
2022/08/20 04:51:07;;;;;;;;;18.00;16.75;;;;;19.14;82.95;99384.38;5077405;28;45532;-67
2022/08/20 04:53:32;;;;;;;;;16.00;16.00;;;;;19.11;83.18;99379.25;5076072;28;45457;-67
2022/08/20 04:55:59;;;;;;;;;17.25;15.75;;;;;19.13;82.74;99389.81;5073377;28;45363;-66
2022/08/20 04:58:35;;;;;;;;;16.25;16.00;;;;;19.12;83.32;99394.31;5074911;28;45446;-66
2022/08/20 05:01:04;;;;;;;;;20.50;18.00;;;;;19.13;82.74;99401.38;5077616;28;45420;-66
2022/08/20 05:03:31;;;;;;;;;17.75;16.25;;;;;19.07;83.46;99399.16;5077174;28;45468;-67
2022/08/20 05:05:56;;;;;;;;;17.00;14.75;;;;;19.01;83.84;99396.91;5077640;28;45496;-67
2022/08/20 05:08:24;;;;;;;;;18.75;17.50;;;;;18.96;84.44;99407.03;5077323;28;46086;-67
2022/08/20 05:10:50;;;;;;;;;16.25;16.25;;;;;18.85;84.95;99406.94;5076979;28;45515;-64
2022/08/20 05:13:16;;;;;;;;;19.00;16.75;;;;;18.77;85.69;99396.78;5069031;28;45407;-68
2022/08/20 05:15:44;;;;;;;;;18.50;17.75;;;;;18.70;85.51;99400.84;5077113;28;45398;-67
2022/08/20 05:18:11;;;;;;;;;22.25;20.50;;;;;18.68;85.71;99404.59;5077124;28;46281;-63
2022/08/20 05:20:40;;;;;;;;;19.20;18.60;;;;;18.70;85.94;99408.00;5076569;28;45454;-70
2022/08/20 05:23:09;;;;;;;;;20.00;17.00;;;;;18.74;85.76;99413.03;5077360;28;45325;-65
2022/08/20 05:25:35;;;;;;;;;19.25;19.25;;;;;18.79;85.74;99410.03;5075855;28;45225;-64
2022/08/20 05:28:07;;;;;;;;;17.25;17.00;;;;;18.86;85.63;99415.81;5076436;28;45437;-64
2022/08/20 05:30:34;;;;;;;;;16.25;16.25;;;;;18.91;85.00;99422.56;5075952;28;45497;-64
2022/08/20 05:32:59;;;;;;;;;20.25;19.00;;;;;18.95;85.14;99420.50;5077383;28;45527;-64
2022/08/20 05:35:26;;;;;;;;;18.50;17.25;;;;;19.02;84.80;99424.47;5075744;28;45815;-65
2022/08/20 05:37:52;;;;;;;;;18.75;18.00;;;;;19.09;84.97;99423.09;5076060;28;47256;-65
2022/08/20 05:40:18;;;;;;;;;16.00;16.00;;;;;19.16;84.68;99425.22;5076169;28;45411;-65
2022/08/20 05:42:44;;;;;;;;;22.25;17.25;;;;;19.23;84.25;99432.81;5077162;28;45355;-65
2022/08/20 05:45:09;;;;;;;;;18.25;18.25;;;;;19.27;84.18;99428.97;5075144;28;45476;-68
2022/08/20 05:47:38;;;;;;;;;20.00;18.50;;;;;19.37;83.70;99440.72;5074568;28;45412;-70
2022/08/20 05:50:04;;;;;;;;;19.25;17.00;;;;;19.44;83.30;99442.81;5076459;28;45509;-69
2022/08/20 05:52:30;;;;;;;;;15.00;14.00;;;;;19.50;83.06;99444.25;5074105;28;45452;-69
2022/08/20 05:54:56;;;;;;;;;19.25;17.25;;;;;19.60;82.16;99449.81;5075170;28;45539;-67
2022/08/20 05:57:21;;;;;;;;;14.50;14.50;;;;;19.67;82.00;99448.38;5076095;28;45547;-68
2022/08/20 05:59:47;;;;;;;;;18.25;15.75;;;;;19.78;81.91;99451.97;5076137;28;45780;-68
2022/08/20 06:05:08;;;;;;;;;17.50;17.50;;;;;20.00;80.47;99445.06;5037942;28;45465;-66
2022/08/20 06:07:33;;;;;;;;;16.75;15.75;;;;;20.09;80.43;99447.94;5076222;28;46253;-69
2022/08/20 06:09:59;;;;;;;;;18.25;15.50;;;;;20.22;79.88;99445.19;5058006;28;45825;-72
2022/08/20 06:12:25;;;;;;;;;15.00;14.00;;;;;20.36;79.86;99446.84;5075733;28;45324;-72
2022/08/20 06:14:50;;;;;;;;;16.50;16.50;;;;;20.47;79.24;99445.09;5075085;28;45727;-78
2022/08/20 06:17:18;;;;;;;;;16.00;16.00;;;;;20.63;78.63;99450.13;5075342;28;45366;-76
2022/08/20 06:19:45;;;;;;;;;16.20;15.80;;;;;20.75;77.82;99440.31;5075601;28;45393;-71
2022/08/20 06:22:13;;;;;;;;;14.25;14.00;;;;;20.88;77.38;99439.25;5058238;28;45472;-75
2022/08/20 06:24:38;;;;;;;;;15.25;14.00;;;;;21.02;76.80;99434.63;5076267;28;45542;-78
2022/08/20 06:27:05;;;;;;;;;14.75;14.75;;;;;21.15;76.40;99438.91;5074871;28;45442;-73
2022/08/20 06:29:32;;;;;;;;;13.40;12.80;;;;;21.26;75.81;99437.28;5075163;28;45388;-71
2022/08/20 06:31:59;;;;;;;;;14.00;13.60;;;;;21.35;75.73;99433.84;5075469;28;45610;-74
2022/08/20 06:34:27;;;;;;;;;15.00;12.50;;;;;21.41;74.57;99436.91;5075542;28;45812;-71
2022/08/20 06:36:56;;;;;;;;;15.00;12.00;;;;;21.51;73.47;99431.66;5074237;28;45735;-76
2022/08/20 06:39:23;;;;;;;;;13.60;12.00;;;;;21.58;73.30;99425.69;5075409;28;45395;-60
2022/08/20 06:41:50;;;;;;;;;13.20;12.60;;;;;21.67;72.84;99423.22;5075022;28;45574;-60
2022/08/20 06:44:16;;;;;;;;;15.25;13.25;;;;;21.76;72.62;99422.47;5075299;28;45605;-59
2022/08/20 06:46:42;;;;;;;;;14.00;14.00;;;;;21.82;73.34;99430.88;5074810;28;46378;-60
2022/08/20 06:49:07;;;;;;;;;14.75;13.00;;;;;21.83;72.35;99427.22;5075666;28;45393;-60
2022/08/20 06:51:36;;;;;;;;;17.25;16.75;;;;;21.87;71.65;99422.44;5074777;28;45476;-66
2022/08/20 06:54:02;;;;;;;;;13.60;13.60;;;;;21.89;71.53;99434.78;5074398;28;45586;-64
2022/08/20 06:56:28;;;;;;;;;15.80;14.20;;;;;21.94;71.65;99429.88;5074000;28;45681;-64
2022/08/20 06:58:54;;;;;;;;;14.40;13.20;;;;;21.99;71.79;99440.22;5056686;28;45446;-64
2022/08/20 07:01:20;;;;;;;;;13.75;13.75;;;;;22.03;71.37;99432.81;5075116;28;45482;-63
2022/08/20 07:03:47;;;;;;;;;13.50;13.50;;;;;22.07;71.47;99431.59;5075268;28;45499;-67
2022/08/20 07:06:14;;;;;;;;;15.25;15.25;;;;;22.08;70.84;99433.31;5071299;28;46363;-67
2022/08/20 07:08:40;;;;;;;;;16.60;15.40;;;;;22.06;71.18;99436.09;5074482;28;45318;-60
2022/08/20 07:11:05;;;;;;;;;15.75;14.00;;;;;22.09;71.48;99437.69;5066490;27;45405;-62
2022/08/20 07:13:35;;;;;;;;;14.00;14.00;;;;;22.11;71.01;99438.41;5069052;28;45546;-62
2022/08/20 07:16:01;;;;;;;;;17.75;16.75;;;;;22.12;71.03;99432.91;5073920;28;47006;-62
2022/08/20 07:18:27;;;;;;;;;15.60;14.40;;;;;22.12;71.02;99435.59;5074789;28;45444;-62
2022/08/20 07:20:53;;;;;;;;;16.75;16.25;;;;;22.14;70.69;99440.81;5074241;28;45680;-62
2022/08/20 07:23:19;;;;;;;;;17.25;15.50;;;;;22.20;70.08;99443.88;5058647;28;45409;-62
2022/08/20 07:25:44;;;;;;;;;15.50;15.50;;;;;22.22;69.74;99441.91;5074137;28;45896;-62
2022/08/20 07:28:19;;;;;;;;;17.00;17.00;;;;;22.27;70.42;99437.03;5073671;28;45441;-62
2022/08/20 07:33:29;;;;;;;;;12.40;11.40;;;;;22.36;69.27;99438.06;5072363;28;45523;-62
2022/08/20 07:36:00;;;;;;;;;13.60;13.60;;;;;22.39;69.07;99442.34;5070171;28;45467;-67
2022/08/20 07:38:28;;;;;;;;;18.80;16.40;;;;;22.41;69.41;99433.19;5072229;28;45443;-62
2022/08/20 07:40:58;;;;;;;;;10.50;10.50;;;;;22.43;68.93;99439.28;5056156;28;45468;-68
2022/08/20 07:43:23;;;;;;;;;14.00;12.75;;;;;22.49;68.90;99438.75;5068704;28;45556;-65
2022/08/20 07:45:55;;;;;;;;;13.75;13.50;;;;;22.56;69.18;99441.78;5074063;28;46217;-67
2022/08/20 07:48:24;;;;;;;;;17.60;16.60;;;;;22.61;69.03;99440.41;5068466;28;46584;-67
2022/08/20 07:50:51;;;;;;;;;15.25;13.25;;;;;22.67;68.83;99444.41;5055101;28;45574;-63
2022/08/20 07:53:16;;;;;;;;;13.50;13.50;;;;;22.75;69.10;99443.78;5054803;28;45474;-65
2022/08/20 07:55:42;;;;;;;;;18.25;15.50;;;;;22.87;68.58;99438.22;5073176;28;46595;-63
2022/08/20 07:58:12;;;;;;;;;15.50;13.00;;;;;22.93;68.25;99445.78;5073456;28;45432;-63
2022/08/20 08:00:38;;;;;;;;;14.00;13.20;;;;;22.97;68.17;99451.72;5072868;28;45404;-64
2022/08/20 08:03:05;;;;;;;;;16.75;14.75;;;;;23.02;67.85;99451.31;5073396;28;45373;-64
2022/08/20 08:05:37;;;;;;;;;15.40;13.60;;;;;23.04;67.49;99444.84;5073308;28;46690;-63
2022/08/20 08:08:09;;;;;;;;;17.00;16.00;;;;;23.11;67.56;99447.84;5072694;28;45448;-60
2022/08/20 08:10:36;;;;;;;;;13.20;11.60;;;;;23.13;67.46;99452.09;5070843;28;45734;-61
2022/08/20 08:13:05;;;;;;;;;16.25;15.25;;;;;23.19;67.58;99443.50;5073195;28;45564;-63
2022/08/20 08:15:33;;;;;;;;;13.00;12.40;;;;;23.22;67.56;99455.84;5073419;28;46445;-66
2022/08/20 08:18:06;;;;;;;;;14.00;13.40;;;;;23.23;68.58;99454.84;5077195;27;45491;-64
2022/08/20 08:20:36;;;;;;;;;12.80;12.40;;;;;23.15;69.52;99449.28;5073291;28;45469;-63
2022/08/20 08:23:02;;;;;;;;;21.00;21.00;;;;;;;;5072274;28;45402;-64
2022/08/20 08:25:28;;;;;;;;;15.00;12.00;;;;;23.07;69.95;99449.97;5072383;28;46094;-63
2022/08/20 08:27:53;;;;;;;;;14.20;14.00;;;;;23.04;70.24;99452.06;5072371;28;45330;-63
2022/08/20 08:30:19;;;;;;;;;16.00;16.00;;;;;22.95;70.28;99454.56;5072915;28;45729;-63
2022/08/20 08:35:32;;;;;;;;;19.60;17.20;;;;;22.73;71.66;99445.72;5072987;28;45668;-64
2022/08/20 08:38:01;;;;;;;;;15.40;14.60;;;;;22.68;72.21;99456.00;5071127;28;45427;-63
2022/08/20 08:40:28;;;;;;;;;19.50;17.50;;;;;22.67;73.02;99457.00;5072081;28;45483;-63
2022/08/20 08:42:57;;;;;;;;;15.75;15.00;;;;;22.64;73.23;99456.25;5069779;28;45595;-63
2022/08/20 08:45:42;;;;;;;;;16.40;14.40;;;;;22.60;74.11;99448.63;5069658;28;45575;-63
2022/08/20 08:48:14;;;;;;;;;17.80;17.80;;;;;22.62;74.70;99446.66;5073316;27;45586;-63
2022/08/20 08:50:44;;;;;;;;;11.60;10.00;;;;;22.66;74.79;99448.06;5071971;28;45381;-63
2022/08/20 08:53:18;;;;;;;;;12.25;12.00;;;;;22.71;74.58;99439.63;5069111;27;45496;-63
2022/08/20 08:55:45;;;;;;;;;14.00;13.80;;;;;22.78;75.21;99440.84;5072510;28;45475;-63
2022/08/20 08:58:12;;;;;;;;;14.60;14.00;;;;;22.81;75.06;99444.13;5069096;28;45436;-63
2022/08/20 09:00:37;;;;;;;;;20.40;18.00;;;;;22.85;76.46;99442.03;5075076;27;45368;-63
2022/08/20 09:03:06;;;;;;;;;15.50;12.25;;;;;22.86;76.52;99435.66;5071850;27;45598;-64
2022/08/20 09:05:47;;;;;;;;;18.60;15.60;;;;;22.87;76.08;99445.44;5072335;28;45452;-69
2022/08/20 09:08:18;;;;;;;;;15.40;14.80;;;;;22.85;76.09;99442.03;5073421;28;45399;-76
2022/08/20 09:10:44;;;;;;;;;15.50;12.25;;;;;22.85;76.00;99440.19;5072864;28;45431;-73
2022/08/20 09:13:10;;;;;;;;;16.50;16.25;;;;;22.84;76.48;99435.78;5056692;28;45833;-73
2022/08/20 09:15:36;;;;;;;;;15.75;14.00;;;;;22.82;75.67;99431.53;5071776;28;45450;-70
2022/08/20 09:18:01;;;;;;;;;14.00;14.00;;;;;22.82;75.94;99424.31;5072864;28;45364;-73
2022/08/20 09:20:28;;;;;;;;;16.25;15.75;;;;;22.89;76.40;99427.34;5072240;28;45420;-73
2022/08/20 09:22:54;;;;;;;;;16.50;16.50;;;;;22.93;76.13;99429.63;5074911;28;45542;-63
2022/08/20 09:25:20;;;;;;;;;15.25;14.75;;;;;22.98;75.90;99423.84;5075782;28;46150;-63
2022/08/20 09:27:45;;;;;;;;;20.60;17.00;;;;;23.07;74.91;99424.91;5075633;28;45495;-63
2022/08/20 09:30:12;;;;;;;;;13.25;13.25;;;;;23.19;75.06;99423.81;5057696;28;45475;-64
2022/08/20 09:32:38;;;;;;;;;12.50;12.50;;;;;23.30;74.68;99421.03;5073048;28;45647;-64
2022/08/20 09:35:04;;;;;;;;;17.00;16.00;;;;;23.40;74.12;99423.78;5074979;28;45430;-63
2022/08/20 09:37:31;;;;;;;;;21.25;16.75;;;;;23.52;73.50;99415.50;5073224;28;45502;-63
2022/08/20 09:39:57;;;;;;;;;17.00;15.75;;;;;23.68;73.60;99417.69;5076182;28;45606;-63
2022/08/20 09:42:28;;;;;;;;;19.25;16.75;;;;;23.86;72.73;99409.78;5075423;28;45600;-64
2022/08/20 09:44:54;;;;;;;;;17.75;17.75;;;;;24.02;71.97;99405.56;5075561;28;46254;-64
2022/08/20 09:47:20;;;;;;;;;14.60;13.20;;;;;24.19;71.21;99404.03;5072034;28;45455;-64
2022/08/20 09:49:46;;;;;;;;;16.00;13.25;;;;;24.31;71.21;99408.31;5076124;28;45303;-64
2022/08/20 09:52:18;;;;;;;;;13.75;12.50;;;;;24.37;70.36;99406.91;5074854;28;45550;-64
2022/08/20 09:54:44;;;;;;;;;14.20;14.00;;;;;24.41;69.71;99396.69;5075707;28;46415;-64
2022/08/20 09:57:10;;;;;;;;;11.75;11.00;;;;;24.43;69.74;99400.94;5074536;28;45492;-64
2022/08/20 09:59:36;;;;;;;;;14.00;14.00;;;;;24.48;70.17;99395.97;5075332;28;45503;-64
2022/08/20 10:02:02;;;;;;;;;15.50;14.00;;;;;24.54;68.61;99400.78;5075136;28;45433;-64
2022/08/20 10:04:28;;;;;;;;;16.40;16.00;;;;;24.63;68.58;99399.91;5075633;28;47000;-65
2022/08/20 10:06:54;;;;;;;;;17.25;15.50;;;;;24.70;68.77;99400.22;5075250;28;45290;-64
2022/08/20 10:09:19;;;;;;;;;17.00;14.25;;;;;24.78;67.49;99388.72;5076429;28;45360;-64
2022/08/20 10:11:44;;;;;;;;;17.75;15.25;;;;;24.83;67.11;99389.09;5075372;28;45570;-64
2022/08/20 10:14:10;;;;;;;;;15.50;14.25;;;;;24.87;67.13;99385.13;5074943;28;45462;-64
2022/08/20 10:16:35;;;;;;;;;15.75;14.50;;;;;24.86;66.34;99383.44;5075282;28;45509;-65
2022/08/20 10:19:02;;;;;;;;;15.25;13.75;;;;;24.84;66.63;99378.19;5075653;28;45350;-64
2022/08/20 10:21:29;;;;;;;;;13.00;13.00;;;;;24.81;65.93;99378.47;5056141;28;45555;-64
2022/08/20 10:23:55;;;;;;;;;11.20;11.20;;;;;24.78;66.26;99372.53;5075425;28;46015;-64
2022/08/20 10:26:21;;;;;;;;;13.60;12.40;;;;;24.79;66.17;99372.38;5075945;28;45330;-64
2022/08/20 10:28:47;;;;;;;;;13.50;13.50;;;;;24.77;65.43;99371.69;5075505;28;45280;-65
2022/08/20 10:31:12;;;;;;;;;13.25;13.00;;;;;24.75;66.12;99368.28;5056328;28;45473;-64
2022/08/20 10:33:39;;;;;;;;;9.00;9.00;;;;;24.74;65.93;99361.19;5075116;28;45863;-64
2022/08/20 10:36:16;;;;;;;;;10.40;10.40;;;;;24.74;66.15;99363.03;5074816;28;45365;-64
2022/08/20 10:38:43;;;;;;;;;11.80;11.80;;;;;24.75;65.88;99362.88;5071003;28;45489;-64
2022/08/20 10:41:08;;;;;;;;;5.20;5.20;;;;;24.75;65.54;99354.78;5075226;28;45392;-65
2022/08/20 10:43:34;;;;;;;;;4.00;4.00;;;;;24.74;64.86;99363.88;5073402;28;46429;-64
2022/08/20 10:46:02;;;;;;;;;2.00;2.00;;;;;24.73;63.43;99355.94;5074795;28;45467;-65
2022/08/20 10:48:28;;;;;;;;;1.00;1.00;;;;;24.66;62.44;99351.09;5074485;28;45380;-64
2022/08/20 10:50:53;;;;;;;;;0.00;0.00;;;;;24.65;62.59;99351.25;5074947;28;45371;-64
2022/08/20 10:53:19;;;;;;;;;1.75;1.75;;;;;24.66;62.76;99337.63;5075167;28;45639;-64
2022/08/20 10:55:44;;;;;;;;;0.75;0.75;;;;;24.67;62.11;99342.03;5074166;28;45391;-64
2022/08/20 10:58:11;;;;;;;;;1.00;1.00;;;;;24.66;60.96;99345.72;5075039;28;45458;-64
2022/08/20 11:00:38;;;;;;;;;0.80;0.80;;;;;24.66;60.83;99329.53;5075177;28;45558;-64
2022/08/20 11:03:03;;;;;;;;;2.40;0.00;;;;;24.67;60.35;99344.72;5075151;28;46005;-64
2022/08/20 11:05:29;;;;;;;;;0.50;0.00;;;;;24.68;59.03;99342.88;5074867;28;45360;-64
2022/08/20 11:07:54;;;;;;;;;0.00;0.00;;;;;24.65;58.36;99329.69;5075238;28;45466;-64
2022/08/20 11:10:21;;;;;;;;;0.00;0.00;;;;;24.66;59.67;99329.53;5074735;28;45401;-72
2022/08/20 11:12:46;;;;;;;;;0.40;0.40;;;;;24.70;58.79;99322.84;5074008;28;45467;-73
2022/08/20 11:15:13;;;;;;;;;0.00;0.00;;;;;24.74;58.58;99328.81;5074537;28;45452;-69
2022/08/20 11:17:41;;;;;;;;;1.40;1.00;;;;;24.77;58.46;99315.06;5074320;28;45511;-72
2022/08/20 11:20:07;;;;;;;;;1.00;1.00;;;;;24.83;58.97;99316.28;5074745;28;45527;-74
2022/08/20 11:22:34;;;;;;;;;0.80;0.80;;;;;24.88;58.20;99319.41;5073933;28;45346;-70
2022/08/20 11:24:59;;;;;;;;;0.00;0.00;;;;;24.95;57.72;99313.31;5074649;28;45425;-66
2022/08/20 11:27:32;;;;;;;;;1.00;0.75;;;;;24.96;56.50;99309.63;5074250;28;45335;-66
2022/08/20 11:29:58;;;;;;;;;0.80;0.80;;;;;24.95;56.44;99320.56;5074117;28;45432;-66